sensor_id;sensor_type;location;lat;lon;timestamp;pressure;altitude;pressure_sealevel;temperature;humidity
48216;BME280;34005;48.844;10.098;2022-10-16T15:14:32;96954.41;;;22.88;55.73
48216;BME280;34005;48.844;10.098;2022-10-16T15:17:00;96962.03;;;22.79;55.01
48216;BME280;34005;48.844;10.098;2022-10-16T15:19:28;96952.91;;;22.70;55.34
48216;BME280;34005;48.844;10.098;2022-10-16T15:21:55;96953.91;;;22.63;55.50
48216;BME280;34005;48.844;10.098;2022-10-16T15:24:23;96951.47;;;22.57;55.34
48216;BME280;34005;48.844;10.098;2022-10-16T15:26:51;96950.59;;;22.51;55.49
48216;BME280;34005;48.844;10.098;2022-10-16T15:29:18;96958.50;;;22.46;55.77
48216;BME280;34005;48.844;10.098;2022-10-16T15:31:48;96956.28;;;22.38;56.17
48216;BME280;34005;48.844;10.098;2022-10-16T15:34:16;96955.97;;;22.34;56.50
48216;BME280;34005;48.844;10.098;2022-10-16T15:36:45;96963.09;;;22.29;56.75
48216;BME280;34005;48.844;10.098;2022-10-16T15:39:15;96961.19;;;22.24;57.22
48216;BME280;34005;48.844;10.098;2022-10-16T15:41:45;96959.25;;;22.19;57.21
48216;BME280;34005;48.844;10.098;2022-10-16T15:44:16;96951.97;;;22.15;57.46
48216;BME280;34005;48.844;10.098;2022-10-16T15:46:44;96961.75;;;22.09;58.20
48216;BME280;34005;48.844;10.098;2022-10-16T15:49:13;96965.16;;;22.05;58.22
48216;BME280;34005;48.844;10.098;2022-10-16T15:51:41;96974.44;;;22.02;59.46
48216;BME280;34005;48.844;10.098;2022-10-16T15:54:09;96973.31;;;21.98;58.71
48216;BME280;34005;48.844;10.098;2022-10-16T15:56:36;96973.78;;;21.95;59.21
48216;BME280;34005;48.844;10.098;2022-10-16T16:07:11;96984.84;;;21.87;58.49
48216;BME280;34005;48.844;10.098;2022-10-16T16:09:39;96984.47;;;21.78;58.96
48216;BME280;34005;48.844;10.098;2022-10-16T16:12:06;96977.13;;;21.68;59.02
48216;BME280;34005;48.844;10.098;2022-10-16T17:16:41;97036.38;;;20.54;60.74
48216;BME280;34005;48.844;10.098;2022-10-16T17:19:14;97036.16;;;20.55;60.80
48216;BME280;34005;48.844;10.098;2022-10-16T17:21:43;97038.81;;;20.55;60.73
48216;BME280;34005;48.844;10.098;2022-10-16T17:24:11;97040.63;;;20.55;60.88
48216;BME280;34005;48.844;10.098;2022-10-16T17:26:39;97037.19;;;20.54;61.25
48216;BME280;34005;48.844;10.098;2022-10-16T17:29:10;97039.50;;;20.51;61.81
48216;BME280;34005;48.844;10.098;2022-10-16T17:31:38;97043.19;;;20.50;62.34
48216;BME280;34005;48.844;10.098;2022-10-16T17:34:08;97046.91;;;20.49;62.75
48216;BME280;34005;48.844;10.098;2022-10-16T17:36:38;97042.84;;;20.46;62.50
48216;BME280;34005;48.844;10.098;2022-10-16T17:39:11;97047.00;;;20.42;62.56
48216;BME280;34005;48.844;10.098;2022-10-16T17:41:39;97056.47;;;20.38;62.39
48216;BME280;34005;48.844;10.098;2022-10-16T17:44:07;97052.69;;;20.34;62.96
48216;BME280;34005;48.844;10.098;2022-10-16T17:46:35;97052.53;;;20.29;63.04
48216;BME280;34005;48.844;10.098;2022-10-16T17:49:08;97047.16;;;20.24;63.17
48216;BME280;34005;48.844;10.098;2022-10-16T17:51:36;97040.13;;;20.17;63.24
48216;BME280;34005;48.844;10.098;2022-10-16T17:54:04;97039.44;;;20.10;63.52
48216;BME280;34005;48.844;10.098;2022-10-16T17:56:32;97044.88;;;20.04;63.44
48216;BME280;34005;48.844;10.098;2022-10-16T17:59:01;97046.59;;;19.98;63.68
48216;BME280;34005;48.844;10.098;2022-10-16T18:01:30;97048.31;;;19.92;64.12
48216;BME280;34005;48.844;10.098;2022-10-16T18:04:00;97043.94;;;19.86;64.02
48216;BME280;34005;48.844;10.098;2022-10-16T18:06:30;97045.66;;;19.81;64.37
48216;BME280;34005;48.844;10.098;2022-10-16T18:08:58;97046.59;;;19.74;64.45
48216;BME280;34005;48.844;10.098;2022-10-16T18:11:27;97045.44;;;19.70;64.36
48216;BME280;34005;48.844;10.098;2022-10-16T18:13:56;97047.13;;;19.65;64.34
48216;BME280;34005;48.844;10.098;2022-10-16T18:16:25;97050.44;;;19.60;64.35
48216;BME280;34005;48.844;10.098;2022-10-16T18:18:53;97054.59;;;19.56;64.43
48216;BME280;34005;48.844;10.098;2022-10-16T18:21:23;97053.41;;;19.52;64.20
48216;BME280;34005;48.844;10.098;2022-10-16T18:23:55;97050.66;;;19.47;64.04
48216;BME280;34005;48.844;10.098;2022-10-16T18:26:24;97058.47;;;19.42;63.97
48216;BME280;34005;48.844;10.098;2022-10-16T18:28:52;97058.91;;;19.39;63.80
48216;BME280;34005;48.844;10.098;2022-10-16T18:31:21;97054.88;;;19.36;63.79
48216;BME280;34005;48.844;10.098;2022-10-16T18:33:50;97060.66;;;19.33;63.44
48216;BME280;34005;48.844;10.098;2022-10-16T18:36:20;97068.78;;;19.31;63.78
48216;BME280;34005;48.844;10.098;2022-10-16T18:38:49;97071.88;;;19.28;63.33
48216;BME280;34005;48.844;10.098;2022-10-16T18:41:20;97068.09;;;19.24;63.24
48216;BME280;34005;48.844;10.098;2022-10-16T18:43:48;97071.97;;;19.22;63.15
48216;BME280;34005;48.844;10.098;2022-10-16T18:46:17;97073.69;;;19.16;63.19
48216;BME280;34005;48.844;10.098;2022-10-16T18:48:46;97075.97;;;19.12;63.19
48216;BME280;34005;48.844;10.098;2022-10-16T18:51:16;97075.63;;;19.09;63.14
48216;BME280;34005;48.844;10.098;2022-10-16T18:53:45;97074.47;;;19.05;63.22
48216;BME280;34005;48.844;10.098;2022-10-16T18:56:14;97079.16;;;19.03;63.39
48216;BME280;34005;48.844;10.098;2022-10-16T18:58:45;97091.00;;;19.00;63.38
48216;BME280;34005;48.844;10.098;2022-10-16T19:01:15;97085.94;;;18.99;63.46
48216;BME280;34005;48.844;10.098;2022-10-16T19:03:46;97089.59;;;18.98;63.44
48216;BME280;34005;48.844;10.098;2022-10-16T19:06:15;97095.91;;;18.97;63.61
48216;BME280;34005;48.844;10.098;2022-10-16T19:08:43;97096.94;;;18.96;63.33
48216;BME280;34005;48.844;10.098;2022-10-16T19:11:12;97105.91;;;18.94;63.49
48216;BME280;34005;48.844;10.098;2022-10-16T19:13:40;97111.41;;;18.93;63.47
48216;BME280;34005;48.844;10.098;2022-10-16T19:16:12;97120.38;;;18.92;63.46
48216;BME280;34005;48.844;10.098;2022-10-16T19:18:47;97119.78;;;18.90;63.44
48216;BME280;34005;48.844;10.098;2022-10-16T19:21:16;97115.50;;;18.89;63.57
48216;BME280;34005;48.844;10.098;2022-10-16T19:23:45;97121.84;;;18.88;63.33
48216;BME280;34005;48.844;10.098;2022-10-16T19:26:14;97121.03;;;18.87;63.72
48216;BME280;34005;48.844;10.098;2022-10-16T19:28:43;97122.66;;;18.88;63.93
48216;BME280;34005;48.844;10.098;2022-10-16T19:31:17;97121.84;;;18.88;64.58
48216;BME280;34005;48.844;10.098;2022-10-16T19:33:45;97114.94;;;18.87;63.96
48216;BME280;34005;48.844;10.098;2022-10-16T19:36:15;97120.47;;;18.85;64.44
48216;BME280;34005;48.844;10.098;2022-10-16T19:38:44;97121.47;;;18.84;64.29
48216;BME280;34005;48.844;10.098;2022-10-16T19:41:13;97125.16;;;18.83;64.46
48216;BME280;34005;48.844;10.098;2022-10-16T19:43:41;97125.38;;;18.82;64.94
48216;BME280;34005;48.844;10.098;2022-10-16T19:46:11;97125.19;;;18.77;64.20
48216;BME280;34005;48.844;10.098;2022-10-16T19:48:40;97130.09;;;18.73;64.55
48216;BME280;34005;48.844;10.098;2022-10-16T19:51:10;97128.94;;;18.69;64.22
48216;BME280;34005;48.844;10.098;2022-10-16T19:53:38;97136.50;;;18.65;65.54
48216;BME280;34005;48.844;10.098;2022-10-16T19:56:11;97138.78;;;18.62;64.16
48216;BME280;34005;48.844;10.098;2022-10-16T19:58:39;97140.25;;;18.58;63.88
48216;BME280;34005;48.844;10.098;2022-10-16T20:01:06;97144.94;;;18.56;63.89
48216;BME280;34005;48.844;10.098;2022-10-16T20:03:34;97144.56;;;18.52;64.02
48216;BME280;34005;48.844;10.098;2022-10-16T20:06:03;97154.31;;;18.51;65.79
48216;BME280;34005;48.844;10.098;2022-10-16T20:08:33;97155.16;;;18.52;64.88
48216;BME280;34005;48.844;10.098;2022-10-16T20:11:01;97161.22;;;18.52;65.42
48216;BME280;34005;48.844;10.098;2022-10-16T20:13:29;97152.72;;;18.50;64.63
48216;BME280;34005;48.844;10.098;2022-10-16T20:15:56;97158.81;;;18.51;65.97
48216;BME280;34005;48.844;10.098;2022-10-16T20:18:24;97155.72;;;18.54;68.83
48216;BME280;34005;48.844;10.098;2022-10-16T20:20:51;97165.72;;;18.52;66.68
48216;BME280;34005;48.844;10.098;2022-10-16T20:23:20;97171.00;;;18.52;67.87
48216;BME280;34005;48.844;10.098;2022-10-16T20:25:49;97170.63;;;18.48;66.50
48216;BME280;34005;48.844;10.098;2022-10-16T20:28:19;97166.34;;;18.47;67.90
48216;BME280;34005;48.844;10.098;2022-10-16T20:30:48;97167.97;;;18.48;67.73
48216;BME280;34005;48.844;10.098;2022-10-16T20:33:16;97172.44;;;18.48;67.76
48216;BME280;34005;48.844;10.098;2022-10-16T20:35:45;97171.63;;;18.47;67.15
48216;BME280;34005;48.844;10.098;2022-10-16T20:41:52;97167.25;;;18.41;66.92
48216;BME280;34005;48.844;10.098;2022-10-16T20:44:20;97165.47;;;18.35;65.94
48216;BME280;34005;48.844;10.098;2022-10-16T20:46:47;97163.22;;;18.32;65.30
48216;BME280;34005;48.844;10.098;2022-10-16T20:49:15;97170.56;;;18.30;65.14
48216;BME280;34005;48.844;10.098;2022-10-16T20:52:01;97169.16;;;18.27;64.86
48216;BME280;34005;48.844;10.098;2022-10-16T20:54:28;97172.03;;;18.26;64.69
48216;BME280;34005;48.844;10.098;2022-10-16T20:56:57;97177.31;;;18.26;64.51
48216;BME280;34005;48.844;10.098;2022-10-16T20:59:25;97182.59;;;18.26;64.75
48216;BME280;34005;48.844;10.098;2022-10-16T21:01:52;97184.22;;;18.27;64.50
48216;BME280;34005;48.844;10.098;2022-10-16T21:04:20;97186.84;;;18.27;64.58
48216;BME280;34005;48.844;10.098;2022-10-16T21:06:48;97192.13;;;18.27;65.75
48216;BME280;34005;48.844;10.098;2022-10-16T21:09:15;97191.53;;;18.25;65.05
48216;BME280;34005;48.844;10.098;2022-10-16T21:11:43;97197.41;;;18.27;65.53
48216;BME280;34005;48.844;10.098;2022-10-16T21:14:12;97195.81;;;18.26;66.85
48216;BME280;34005;48.844;10.098;2022-10-16T21:16:39;97193.97;;;18.26;67.66
48216;BME280;34005;48.844;10.098;2022-10-16T21:19:07;97204.75;;;18.25;66.13
48216;BME280;34005;48.844;10.098;2022-10-16T21:21:36;97203.13;;;18.24;67.08
48216;BME280;34005;48.844;10.098;2022-10-16T21:24:05;97208.63;;;18.22;67.13
48216;BME280;34005;48.844;10.098;2022-10-16T21:26:38;97205.41;;;18.20;66.52
48216;BME280;34005;48.844;10.098;2022-10-16T21:29:06;97201.34;;;18.18;65.85
48216;BME280;34005;48.844;10.098;2022-10-16T21:31:35;97205.44;;;18.14;65.41
48216;BME280;34005;48.844;10.098;2022-10-16T21:34:03;97220.50;;;18.13;66.18
48216;BME280;34005;48.844;10.098;2022-10-16T21:36:32;97218.66;;;18.14;67.18
48216;BME280;34005;48.844;10.098;2022-10-16T21:39:00;97215.22;;;18.13;66.80
48216;BME280;34005;48.844;10.098;2022-10-16T21:41:28;97217.25;;;18.11;65.82
48216;BME280;34005;48.844;10.098;2022-10-16T21:43:57;97218.50;;;18.08;65.51
48216;BME280;34005;48.844;10.098;2022-10-16T21:46:26;97220.53;;;18.06;65.53
48216;BME280;34005;48.844;10.098;2022-10-16T21:48:57;97215.66;;;18.03;65.40
48216;BME280;34005;48.844;10.098;2022-10-16T21:51:26;97217.72;;;18.01;65.51
48216;BME280;34005;48.844;10.098;2022-10-16T21:53:54;97214.47;;;17.99;65.40
48216;BME280;34005;48.844;10.098;2022-10-16T21:56:22;97225.47;;;17.96;65.39
48216;BME280;34005;48.844;10.098;2022-10-16T21:58:50;97227.50;;;17.94;65.34
48216;BME280;34005;48.844;10.098;2022-10-16T22:01:18;97224.88;;;17.94;65.56
48216;BME280;34005;48.844;10.098;2022-10-16T22:03:47;97223.28;;;17.93;66.17
48216;BME280;34005;48.844;10.098;2022-10-16T22:06:19;97224.88;;;17.94;65.37
48216;BME280;34005;48.844;10.098;2022-10-16T22:08:53;97219.00;;;17.92;65.79
48216;BME280;34005;48.844;10.098;2022-10-16T22:11:23;97216.56;;;17.90;65.69
48216;BME280;34005;48.844;10.098;2022-10-16T22:13:51;97223.69;;;17.90;65.39
48216;BME280;34005;48.844;10.098;2022-10-16T22:16:25;97223.06;;;17.88;65.08
48216;BME280;34005;48.844;10.098;2022-10-16T22:18:53;97229.38;;;17.87;65.12
48216;BME280;34005;48.844;10.098;2022-10-16T22:21:22;97229.59;;;17.85;65.11
48216;BME280;34005;48.844;10.098;2022-10-16T22:23:50;97223.50;;;17.85;65.26
48216;BME280;34005;48.844;10.098;2022-10-16T22:26:19;97231.63;;;17.83;65.22
48216;BME280;34005;48.844;10.098;2022-10-16T22:28:47;97225.94;;;17.80;65.10
48216;BME280;34005;48.844;10.098;2022-10-16T22:31:14;97225.94;;;17.80;64.99
48216;BME280;34005;48.844;10.098;2022-10-16T22:33:43;97231.66;;;17.77;65.50
48216;BME280;34005;48.844;10.098;2022-10-16T22:36:12;97226.38;;;17.77;65.01
48216;BME280;34005;48.844;10.098;2022-10-16T22:38:41;97228.41;;;17.75;65.07
48216;BME280;34005;48.844;10.098;2022-10-16T22:41:11;97232.88;;;17.74;65.85
48216;BME280;34005;48.844;10.098;2022-10-16T22:43:41;97219.09;;;17.72;65.63
48216;BME280;34005;48.844;10.098;2022-10-16T22:46:11;97221.13;;;17.70;65.25
48216;BME280;34005;48.844;10.098;2022-10-16T22:48:39;97220.31;;;17.69;65.12
48216;BME280;34005;48.844;10.098;2022-10-16T22:51:07;97215.47;;;17.66;65.09
48216;BME280;34005;48.844;10.098;2022-10-16T22:53:44;97222.78;;;17.64;65.01
48216;BME280;34005;48.844;10.098;2022-10-16T22:56:13;97222.41;;;17.61;64.91
48216;BME280;34005;48.844;10.098;2022-10-16T22:58:40;97215.72;;;17.58;65.18
48216;BME280;34005;48.844;10.098;2022-10-16T23:01:10;97222.00;;;17.57;65.39
48216;BME280;34005;48.844;10.098;2022-10-16T23:03:38;97220.41;;;17.56;65.28
48216;BME280;34005;48.844;10.098;2022-10-16T23:06:05;97216.56;;;17.52;65.33
48216;BME280;34005;48.844;10.098;2022-10-16T23:08:33;97219.19;;;17.52;65.37
48216;BME280;34005;48.844;10.098;2022-10-16T23:11:06;97215.97;;;17.50;65.48
48216;BME280;34005;48.844;10.098;2022-10-16T23:13:35;97215.16;;;17.49;65.43
48216;BME280;34005;48.844;10.098;2022-10-16T23:16:03;97218.44;;;17.45;65.36
48216;BME280;34005;48.844;10.098;2022-10-16T23:18:32;97215.59;;;17.40;65.44
48216;BME280;34005;48.844;10.098;2022-10-16T23:21:04;97221.91;;;17.39;65.60
48216;BME280;34005;48.844;10.098;2022-10-16T23:23:33;97226.38;;;17.38;65.53
48216;BME280;34005;48.844;10.098;2022-10-16T23:26:01;97227.56;;;17.36;65.46
48216;BME280;34005;48.844;10.098;2022-10-16T23:28:30;97225.38;;;17.33;65.35
48216;BME280;34005;48.844;10.098;2022-10-16T23:30:58;97233.47;;;17.31;65.45
48216;BME280;34005;48.844;10.098;2022-10-16T23:33:25;97245.25;;;17.28;65.64
48216;BME280;34005;48.844;10.098;2022-10-16T23:35:53;97246.50;;;17.26;65.67
48216;BME280;34005;48.844;10.098;2022-10-16T23:38:20;97236.34;;;17.23;65.65
48216;BME280;34005;48.844;10.098;2022-10-16T23:40:48;97241.25;;;17.19;65.71
48216;BME280;34005;48.844;10.098;2022-10-16T23:43:15;97243.47;;;17.16;65.74
48216;BME280;34005;48.844;10.098;2022-10-16T23:45:44;97244.69;;;17.13;65.75
48216;BME280;34005;48.844;10.098;2022-10-16T23:48:12;97246.13;;;17.09;66.09
48216;BME280;34005;48.844;10.098;2022-10-16T23:50:40;97250.78;;;17.07;66.08
48216;BME280;34005;48.844;10.098;2022-10-16T23:53:07;97251.41;;;17.02;66.13
48216;BME280;34005;48.844;10.098;2022-10-16T23:55:35;97246.78;;;16.98;66.27
48216;BME280;34005;48.844;10.098;2022-10-16T23:58:03;97248.19;;;16.94;66.54
